Airport View

Enter AWOS ICAO identifier for current METAR.

ex. KFNL

KHNR 051310Z AUTO 20005KT 3SM -RA BKN050 BKN060 15/15 A3011 RMK AO2

5 Aug 2020 13:13

Frequency: 118.325

Phone: 712-744-4400

Other Area AWOS: KAIO - KADU - KDNS - KCBF

TAF KOMA 051125Z 0512/0612 15008KT P6SM OVC060 FM051700 17012G20KT P6SM BKN050 FM052100 17011KT P6SM BKN040 FM060000 16010KT P6SM SCT030 FM060600 16008KT P6SM BKN050 PROB30 0609/0611 4SM TSRA BR OVC025CB